Gesamt
Muscatine Muni Airport (Muscatine, IA) MUT Wetter
|
Muscatine, IA (KMUT)
Klarer Himmel
Leichter Wind |
|
23 °C |
There is no TAF data available at MUT or any nearby airports.
Kürzlicher METAR-Verlauf für MUT
| Date | Time (CDT) | Flight Rules | Wind Dir. | Speed | Type | Height AGL (ft) | Visibility | Temp (°C) | Temp (°F) | Dew Point (°C) | Dew Point (°F) | Rel. Humid. | Pressure | Density Altitude | Remarks |
|---|---|---|---|---|---|---|---|---|---|---|---|---|---|---|---|
| 31-Aug | 02:55 | VFR | 160° | 4 kt | 10 miles | 23° | 73° | 20° | 68° | 83% | 29.89 in Hg | 1.537 ft | |||
| 31-Aug | 02:35 | VFR | 150° | 4 kt | 10 miles | 24° | 75° | 20° | 68° | 78% | 29.89 in Hg | 1.657 ft | |||
| 31-Aug | 02:15 | VFR | 140° | 3 kt | 10 miles | 23° | 73° | 20° | 68° | 83% | 29.90 in Hg | 1.527 ft | |||
| 31-Aug | 01:55 | VFR | 140° | 4 kt | 10 miles | 23° | 73° | 20° | 68° | 83% | 29.90 in Hg | 1.527 ft | |||
| 31-Aug | 01:35 | VFR | Calm | 10 miles | 23° | 73° | 21° | 69° | 89% | 29.91 in Hg | 1.517 ft | ||||
| 31-Aug | 01:15 | VFR | Calm | 10 miles | 22° | 71° | 21° | 69° | 94% | 29.91 in Hg | 1.397 ft | ||||
| 31-Aug | 00:55 | VFR | Calm | 10 miles | 23° | 73° | 21° | 69° | 89% | 29.91 in Hg | 1.517 ft | ||||
| 31-Aug | 00:35 | VFR | Calm | 10 miles | 23° | 73° | 22° | 71° | 94% | 29.91 in Hg | 1.517 ft | ||||
| 31-Aug | 00:15 | VFR | Calm | 10 miles | 23° | 73° | 22° | 71° | 94% | 29.90 in Hg | 1.527 ft | ||||
| 30-Aug | 23:55 | VFR | Calm | 10 miles | 23° | 73° | 22° | 71° | 94% | 29.91 in Hg | 1.517 ft | ||||
| 30-Aug | 23:35 | VFR | 180° | 4 kt | 10 miles | 24° | 75° | 22° | 71° | 89% | 29.91 in Hg | 1.637 ft | |||
| 30-Aug | 23:15 | VFR | 170° | 3 kt | 10 miles | 25° | 77° | 22° | 71° | 83% | 29.92 in Hg | 1.747 ft | |||
| 30-Aug | 22:55 | VFR | 160° | 6 kt | 10 miles | 25° | 77° | 23° | 73° | 89% | 29.91 in Hg | 1.757 ft | |||
| 30-Aug | 22:35 | VFR | 170° | 3 kt | 10 miles | 24° | 75° | 23° | 73° | 94% | 29.92 in Hg | 1.627 ft | |||
| 30-Aug | 22:15 | VFR | 160° | 6 kt | 10 miles | 26° | 78° | 23° | 73° | 84% | 29.92 in Hg | 1.867 ft | |||
| 30-Aug | 21:55 | VFR | 160° | 6 kt | 10 miles | 26° | 78° | 23° | 73° | 84% | 29.92 in Hg | 1.867 ft | Wind gusting to 13 KT | ||
| 30-Aug | 21:35 | VFR | 150° | 7 kt | 10 miles | 26° | 78° | 23° | 73° | 84% | 29.92 in Hg | 1.867 ft | |||
| 30-Aug | 21:15 | VFR | 150° | 5 kt | 10 miles | 26° | 78° | 23° | 73° | 84% | 29.92 in Hg | 1.867 ft | |||
| 30-Aug | 20:55 | VFR | 150° | 3 kt | 10 miles | 26° | 78° | 24° | 75° | 89% | 29.92 in Hg | 1.867 ft | |||
| 30-Aug | 20:35 | VFR | 140° | 4 kt | 10 miles | 27° | 80° | 24° | 75° | 84% | 29.91 in Hg | 1.997 ft | |||
| 30-Aug | 20:15 | VFR | 150° | 4 kt | 10 miles | 27° | 80° | 24° | 75° | 84% | 29.90 in Hg | 2.007 ft | |||
| 30-Aug | 19:55 | VFR | 140° | 5 kt | 10 miles | 27° | 80° | 24° | 75° | 84% | 29.90 in Hg | 2.007 ft | |||
| 30-Aug | 19:15 | VFR | 120° | 8 kt | 10 miles | 28° | 82° | 25° | 77° | 84% | 29.90 in Hg | 2.127 ft | |||
| 30-Aug | 18:55 | VFR | 130° | 6 kt | 10 miles | 29° | 84° | 25° | 77° | 79% | 29.90 in Hg | 2.247 ft |
Anmelden
| Ihr Browser wird nicht unterstützt. aktualisieren Sie Ihren Browser |
